sensor_id;sensor_type;location;lat;lon;timestamp;temperature;humidity
4097;DHT22;2062;50.694;7.246;2022-12-10T00:02:07;23.70;29.10
4097;DHT22;2062;50.694;7.246;2022-12-10T00:04:34;23.70;29.10
4097;DHT22;2062;50.694;7.246;2022-12-10T00:07:01;23.60;29.00
4097;DHT22;2062;50.694;7.246;2022-12-10T00:09:29;23.70;29.10
4097;DHT22;2062;50.694;7.246;2022-12-10T00:11:56;23.70;29.00
4097;DHT22;2062;50.694;7.246;2022-12-10T00:14:22;23.70;29.00
4097;DHT22;2062;50.694;7.246;2022-12-10T00:16:49;23.70;29.00
4097;DHT22;2062;50.694;7.246;2022-12-10T00:19:16;23.60;29.00
4097;DHT22;2062;50.694;7.246;2022-12-10T00:21:43;23.70;29.00
4097;DHT22;2062;50.694;7.246;2022-12-10T00:24:10;23.70;29.00
4097;DHT22;2062;50.694;7.246;2022-12-10T00:26:39;23.70;29.00
4097;DHT22;2062;50.694;7.246;2022-12-10T00:29:07;23.60;28.90
4097;DHT22;2062;50.694;7.246;2022-12-10T00:31:37;23.60;28.90
4097;DHT22;2062;50.694;7.246;2022-12-10T00:34:05;23.60;28.80
4097;DHT22;2062;50.694;7.246;2022-12-10T00:36:34;23.70;28.90
4097;DHT22;2062;50.694;7.246;2022-12-10T00:39:02;23.70;28.80
4097;DHT22;2062;50.694;7.246;2022-12-10T00:41:30;23.70;28.80
4097;DHT22;2062;50.694;7.246;2022-12-10T00:43:58;23.70;28.90
4097;DHT22;2062;50.694;7.246;2022-12-10T00:46:25;23.70;28.80
4097;DHT22;2062;50.694;7.246;2022-12-10T00:48:52;23.70;28.80
4097;DHT22;2062;50.694;7.246;2022-12-10T00:51:20;23.70;28.80
4097;DHT22;2062;50.694;7.246;2022-12-10T00:53:49;23.70;28.80
4097;DHT22;2062;50.694;7.246;2022-12-10T00:56:18;23.70;28.80
4097;DHT22;2062;50.694;7.246;2022-12-10T00:58:45;23.70;28.70
4097;DHT22;2062;50.694;7.246;2022-12-10T01:01:17;23.70;28.70
4097;DHT22;2062;50.694;7.246;2022-12-10T01:03:44;23.60;28.60
4097;DHT22;2062;50.694;7.246;2022-12-10T01:06:14;23.60;28.60
4097;DHT22;2062;50.694;7.246;2022-12-10T01:08:41;23.70;28.70
4097;DHT22;2062;50.694;7.246;2022-12-10T01:11:09;23.60;28.60
4097;DHT22;2062;50.694;7.246;2022-12-10T01:13:37;23.60;28.60
4097;DHT22;2062;50.694;7.246;2022-12-10T01:16:06;23.70;28.60
4097;DHT22;2062;50.694;7.246;2022-12-10T01:18:35;23.70;28.60
4097;DHT22;2062;50.694;7.246;2022-12-10T01:21:02;23.60;28.50
4097;DHT22;2062;50.694;7.246;2022-12-10T01:23:31;23.60;28.50
4097;DHT22;2062;50.694;7.246;2022-12-10T01:26:00;23.60;28.50
4097;DHT22;2062;50.694;7.246;2022-12-10T01:28:29;23.60;28.50
4097;DHT22;2062;50.694;7.246;2022-12-10T01:31:00;23.70;28.50
4097;DHT22;2062;50.694;7.246;2022-12-10T01:33:27;23.70;28.50
4097;DHT22;2062;50.694;7.246;2022-12-10T01:35:55;23.70;28.50
4097;DHT22;2062;50.694;7.246;2022-12-10T01:38:22;23.60;28.40
4097;DHT22;2062;50.694;7.246;2022-12-10T01:40:48;23.60;28.40
4097;DHT22;2062;50.694;7.246;2022-12-10T01:43:15;23.60;28.30
4097;DHT22;2062;50.694;7.246;2022-12-10T01:45:42;23.60;28.30
4097;DHT22;2062;50.694;7.246;2022-12-10T01:48:09;23.60;28.30
4097;DHT22;2062;50.694;7.246;2022-12-10T01:50:36;23.60;28.30
4097;DHT22;2062;50.694;7.246;2022-12-10T01:53:04;23.60;28.30
4097;DHT22;2062;50.694;7.246;2022-12-10T01:55:45;23.60;28.30
4097;DHT22;2062;50.694;7.246;2022-12-10T01:58:14;23.60;28.30
4097;DHT22;2062;50.694;7.246;2022-12-10T02:00:48;23.60;28.30
4097;DHT22;2062;50.694;7.246;2022-12-10T02:03:20;23.60;28.20
4097;DHT22;2062;50.694;7.246;2022-12-10T02:05:54;23.60;28.20
4097;DHT22;2062;50.694;7.246;2022-12-10T02:08:26;23.60;28.20
4097;DHT22;2062;50.694;7.246;2022-12-10T02:10:59;23.60;28.20
4097;DHT22;2062;50.694;7.246;2022-12-10T02:13:35;23.60;28.20
4097;DHT22;2062;50.694;7.246;2022-12-10T02:16:08;23.60;28.20
4097;DHT22;2062;50.694;7.246;2022-12-10T02:18:39;23.60;28.20
4097;DHT22;2062;50.694;7.246;2022-12-10T02:21:10;23.60;28.20
4097;DHT22;2062;50.694;7.246;2022-12-10T02:23:44;23.60;28.10
4097;DHT22;2062;50.694;7.246;2022-12-10T02:26:18;23.60;28.10
4097;DHT22;2062;50.694;7.246;2022-12-10T02:28:51;23.60;28.10
4097;DHT22;2062;50.694;7.246;2022-12-10T02:31:24;23.60;28.10
4097;DHT22;2062;50.694;7.246;2022-12-10T02:33:55;23.60;28.10
4097;DHT22;2062;50.694;7.246;2022-12-10T02:36:25;23.60;28.10
4097;DHT22;2062;50.694;7.246;2022-12-10T02:38:56;23.60;28.10
4097;DHT22;2062;50.694;7.246;2022-12-10T02:41:26;23.60;28.10
4097;DHT22;2062;50.694;7.246;2022-12-10T02:43:56;23.60;28.00
4097;DHT22;2062;50.694;7.246;2022-12-10T02:46:26;23.60;28.10
4097;DHT22;2062;50.694;7.246;2022-12-10T02:48:55;23.60;28.00
4097;DHT22;2062;50.694;7.246;2022-12-10T02:51:24;23.60;28.00
4097;DHT22;2062;50.694;7.246;2022-12-10T02:53:59;23.60;28.00
4097;DHT22;2062;50.694;7.246;2022-12-10T02:56:32;23.60;28.00
4097;DHT22;2062;50.694;7.246;2022-12-10T02:59:07;23.60;28.00
4097;DHT22;2062;50.694;7.246;2022-12-10T03:01:43;23.60;28.00
4097;DHT22;2062;50.694;7.246;2022-12-10T03:04:17;23.60;28.00
4097;DHT22;2062;50.694;7.246;2022-12-10T03:06:51;23.70;28.00
4097;DHT22;2062;50.694;7.246;2022-12-10T03:09:22;23.60;28.00
4097;DHT22;2062;50.694;7.246;2022-12-10T03:11:59;23.60;28.00
4097;DHT22;2062;50.694;7.246;2022-12-10T03:14:29;23.60;27.90
4097;DHT22;2062;50.694;7.246;2022-12-10T03:16:59;23.60;27.90
4097;DHT22;2062;50.694;7.246;2022-12-10T03:19:32;23.60;27.90
4097;DHT22;2062;50.694;7.246;2022-12-10T03:22:02;23.60;27.90
4097;DHT22;2062;50.694;7.246;2022-12-10T03:24:30;23.60;27.90
4097;DHT22;2062;50.694;7.246;2022-12-10T03:26:57;23.60;27.90
4097;DHT22;2062;50.694;7.246;2022-12-10T03:29:27;23.60;27.90
4097;DHT22;2062;50.694;7.246;2022-12-10T03:31:55;23.60;27.90
4097;DHT22;2062;50.694;7.246;2022-12-10T03:34:24;23.60;27.80
4097;DHT22;2062;50.694;7.246;2022-12-10T03:36:52;23.60;27.90
4097;DHT22;2062;50.694;7.246;2022-12-10T03:39:19;23.60;27.90
4097;DHT22;2062;50.694;7.246;2022-12-10T03:41:46;23.60;27.80
4097;DHT22;2062;50.694;7.246;2022-12-10T03:44:13;23.60;27.80
4097;DHT22;2062;50.694;7.246;2022-12-10T03:46:40;23.60;27.80
4097;DHT22;2062;50.694;7.246;2022-12-10T03:49:07;23.60;27.80
4097;DHT22;2062;50.694;7.246;2022-12-10T03:51:35;23.60;27.80
4097;DHT22;2062;50.694;7.246;2022-12-10T03:54:01;23.60;27.80
4097;DHT22;2062;50.694;7.246;2022-12-10T03:56:28;23.60;27.80
4097;DHT22;2062;50.694;7.246;2022-12-10T03:58:55;23.60;27.70
4097;DHT22;2062;50.694;7.246;2022-12-10T04:01:22;23.60;27.80
4097;DHT22;2062;50.694;7.246;2022-12-10T04:03:48;23.60;27.80
4097;DHT22;2062;50.694;7.246;2022-12-10T04:06:17;23.60;27.70
4097;DHT22;2062;50.694;7.246;2022-12-10T04:08:47;23.60;27.70
4097;DHT22;2062;50.694;7.246;2022-12-10T04:11:15;23.60;27.70
4097;DHT22;2062;50.694;7.246;2022-12-10T04:13:42;23.60;27.70
4097;DHT22;2062;50.694;7.246;2022-12-10T04:16:27;23.60;27.70
4097;DHT22;2062;50.694;7.246;2022-12-10T04:18:56;23.60;27.70
4097;DHT22;2062;50.694;7.246;2022-12-10T04:21:23;23.60;27.70
4097;DHT22;2062;50.694;7.246;2022-12-10T04:24:10;23.60;27.70
4097;DHT22;2062;50.694;7.246;2022-12-10T04:26:56;23.60;27.70
4097;DHT22;2062;50.694;7.246;2022-12-10T04:29:25;23.60;27.60
4097;DHT22;2062;50.694;7.246;2022-12-10T04:31:52;23.60;27.70
4097;DHT22;2062;50.694;7.246;2022-12-10T04:34:20;23.60;27.70
4097;DHT22;2062;50.694;7.246;2022-12-10T04:36:47;23.60;28.30
4097;DHT22;2062;50.694;7.246;2022-12-10T04:39:15;23.70;27.70
4097;DHT22;2062;50.694;7.246;2022-12-10T04:41:43;23.60;27.60
4097;DHT22;2062;50.694;7.246;2022-12-10T04:44:11;23.60;27.60
4097;DHT22;2062;50.694;7.246;2022-12-10T04:46:38;23.60;27.60
4097;DHT22;2062;50.694;7.246;2022-12-10T04:49:05;23.60;27.60
4097;DHT22;2062;50.694;7.246;2022-12-10T04:51:33;23.60;27.60
4097;DHT22;2062;50.694;7.246;2022-12-10T04:54:00;23.70;27.60
4097;DHT22;2062;50.694;7.246;2022-12-10T04:56:28;23.60;27.60
4097;DHT22;2062;50.694;7.246;2022-12-10T04:58:56;23.60;27.50
4097;DHT22;2062;50.694;7.246;2022-12-10T05:01:23;23.60;27.60
4097;DHT22;2062;50.694;7.246;2022-12-10T05:03:50;23.60;27.50
4097;DHT22;2062;50.694;7.246;2022-12-10T05:06:18;23.60;27.60
4097;DHT22;2062;50.694;7.246;2022-12-10T05:08:46;23.60;27.50
4097;DHT22;2062;50.694;7.246;2022-12-10T05:11:16;23.60;27.50
4097;DHT22;2062;50.694;7.246;2022-12-10T05:13:45;23.60;27.50
4097;DHT22;2062;50.694;7.246;2022-12-10T05:16:14;23.60;27.50
4097;DHT22;2062;50.694;7.246;2022-12-10T05:18:41;23.60;27.50
4097;DHT22;2062;50.694;7.246;2022-12-10T05:21:10;23.60;27.50
4097;DHT22;2062;50.694;7.246;2022-12-10T05:23:40;23.60;27.50
4097;DHT22;2062;50.694;7.246;2022-12-10T05:26:08;23.60;27.50
4097;DHT22;2062;50.694;7.246;2022-12-10T05:28:37;23.60;27.50
4097;DHT22;2062;50.694;7.246;2022-12-10T05:31:11;23.70;27.50
4097;DHT22;2062;50.694;7.246;2022-12-10T05:33:38;23.60;27.40
4097;DHT22;2062;50.694;7.246;2022-12-10T05:36:05;23.60;27.40
4097;DHT22;2062;50.694;7.246;2022-12-10T05:38:33;23.60;27.50
4097;DHT22;2062;50.694;7.246;2022-12-10T05:41:01;23.60;27.40
4097;DHT22;2062;50.694;7.246;2022-12-10T05:43:28;23.60;27.50
4097;DHT22;2062;50.694;7.246;2022-12-10T05:46:00;23.60;27.40
4097;DHT22;2062;50.694;7.246;2022-12-10T05:48:28;23.60;27.40
4097;DHT22;2062;50.694;7.246;2022-12-10T05:50:55;23.60;27.40
4097;DHT22;2062;50.694;7.246;2022-12-10T05:53:22;23.60;27.40
4097;DHT22;2062;50.694;7.246;2022-12-10T05:55:49;23.60;27.40
4097;DHT22;2062;50.694;7.246;2022-12-10T05:58:16;23.60;27.40
4097;DHT22;2062;50.694;7.246;2022-12-10T06:00:43;23.60;27.40
4097;DHT22;2062;50.694;7.246;2022-12-10T06:03:10;23.60;27.40
4097;DHT22;2062;50.694;7.246;2022-12-10T06:05:38;23.60;27.40
4097;DHT22;2062;50.694;7.246;2022-12-10T06:08:06;23.60;28.00
4097;DHT22;2062;50.694;7.246;2022-12-10T06:10:34;23.60;27.40
4097;DHT22;2062;50.694;7.246;2022-12-10T06:13:01;23.60;27.40
4097;DHT22;2062;50.694;7.246;2022-12-10T06:15:28;23.60;27.40
4097;DHT22;2062;50.694;7.246;2022-12-10T06:17:55;23.60;27.30
4097;DHT22;2062;50.694;7.246;2022-12-10T06:20:22;23.60;27.40
4097;DHT22;2062;50.694;7.246;2022-12-10T06:22:51;23.60;27.30
4097;DHT22;2062;50.694;7.246;2022-12-10T06:25:18;23.60;27.30
4097;DHT22;2062;50.694;7.246;2022-12-10T06:27:44;23.60;27.30
4097;DHT22;2062;50.694;7.246;2022-12-10T06:30:12;23.60;27.30
4097;DHT22;2062;50.694;7.246;2022-12-10T06:32:39;23.70;27.40
4097;DHT22;2062;50.694;7.246;2022-12-10T06:35:08;23.60;27.30
4097;DHT22;2062;50.694;7.246;2022-12-10T06:37:35;23.60;27.30
4097;DHT22;2062;50.694;7.246;2022-12-10T06:40:05;23.60;27.30
4097;DHT22;2062;50.694;7.246;2022-12-10T06:42:32;23.70;28.00
4097;DHT22;2062;50.694;7.246;2022-12-10T06:44:59;23.60;27.30
4097;DHT22;2062;50.694;7.246;2022-12-10T06:47:26;23.60;27.20
4097;DHT22;2062;50.694;7.246;2022-12-10T06:49:53;23.60;27.20
4097;DHT22;2062;50.694;7.246;2022-12-10T06:52:20;23.60;27.20
4097;DHT22;2062;50.694;7.246;2022-12-10T06:54:47;23.60;27.30
4097;DHT22;2062;50.694;7.246;2022-12-10T06:57:15;23.60;27.20
4097;DHT22;2062;50.694;7.246;2022-12-10T06:59:42;23.60;27.20
4097;DHT22;2062;50.694;7.246;2022-12-10T07:02:09;23.60;27.20
4097;DHT22;2062;50.694;7.246;2022-12-10T07:04:36;23.60;27.20
4097;DHT22;2062;50.694;7.246;2022-12-10T07:07:03;23.60;27.20
4097;DHT22;2062;50.694;7.246;2022-12-10T07:09:31;23.60;27.20
4097;DHT22;2062;50.694;7.246;2022-12-10T07:11:58;23.60;27.20
4097;DHT22;2062;50.694;7.246;2022-12-10T07:14:26;23.60;27.20
4097;DHT22;2062;50.694;7.246;2022-12-10T07:16:53;23.60;27.20
4097;DHT22;2062;50.694;7.246;2022-12-10T07:19:20;23.60;27.20
4097;DHT22;2062;50.694;7.246;2022-12-10T07:21:47;23.60;27.20
4097;DHT22;2062;50.694;7.246;2022-12-10T07:24:15;23.60;27.20
4097;DHT22;2062;50.694;7.246;2022-12-10T07:26:45;23.60;27.20
4097;DHT22;2062;50.694;7.246;2022-12-10T07:29:13;23.60;27.20
4097;DHT22;2062;50.694;7.246;2022-12-10T07:31:42;23.60;27.30
4097;DHT22;2062;50.694;7.246;2022-12-10T07:34:10;23.60;27.40
4097;DHT22;2062;50.694;7.246;2022-12-10T07:36:37;23.60;27.40
4097;DHT22;2062;50.694;7.246;2022-12-10T07:39:05;23.60;27.40
4097;DHT22;2062;50.694;7.246;2022-12-10T07:41:32;23.60;27.40
4097;DHT22;2062;50.694;7.246;2022-12-10T07:44:00;23.70;27.50
4097;DHT22;2062;50.694;7.246;2022-12-10T07:46:30;23.60;27.40
4097;DHT22;2062;50.694;7.246;2022-12-10T07:49:01;23.60;27.40
4097;DHT22;2062;50.694;7.246;2022-12-10T07:51:29;23.60;27.40
4097;DHT22;2062;50.694;7.246;2022-12-10T07:53:56;23.60;27.40
4097;DHT22;2062;50.694;7.246;2022-12-10T07:56:23;23.60;27.40
4097;DHT22;2062;50.694;7.246;2022-12-10T07:58:51;23.60;27.40
4097;DHT22;2062;50.694;7.246;2022-12-10T08:01:21;23.70;27.50
4097;DHT22;2062;50.694;7.246;2022-12-10T08:03:49;23.60;27.40
4097;DHT22;2062;50.694;7.246;2022-12-10T08:06:19;23.60;27.40
4097;DHT22;2062;50.694;7.246;2022-12-10T08:08:47;23.60;27.40
4097;DHT22;2062;50.694;7.246;2022-12-10T08:11:16;23.60;27.40
4097;DHT22;2062;50.694;7.246;2022-12-10T08:13:43;23.60;27.40
4097;DHT22;2062;50.694;7.246;2022-12-10T08:16:12;23.70;27.50
4097;DHT22;2062;50.694;7.246;2022-12-10T08:18:40;23.60;27.40
4097;DHT22;2062;50.694;7.246;2022-12-10T08:21:09;23.60;27.40
4097;DHT22;2062;50.694;7.246;2022-12-10T08:23:37;23.60;27.40
4097;DHT22;2062;50.694;7.246;2022-12-10T08:26:05;23.60;27.40
4097;DHT22;2062;50.694;7.246;2022-12-10T08:28:32;23.60;27.40
4097;DHT22;2062;50.694;7.246;2022-12-10T08:30:59;23.60;27.40
4097;DHT22;2062;50.694;7.246;2022-12-10T08:33:26;23.60;27.40
4097;DHT22;2062;50.694;7.246;2022-12-10T08:35:57;23.60;27.30
4097;DHT22;2062;50.694;7.246;2022-12-10T08:38:25;23.60;27.30
4097;DHT22;2062;50.694;7.246;2022-12-10T08:40:53;23.60;27.30
4097;DHT22;2062;50.694;7.246;2022-12-10T08:43:20;23.60;27.30
4097;DHT22;2062;50.694;7.246;2022-12-10T08:45:47;23.60;27.30
4097;DHT22;2062;50.694;7.246;2022-12-10T08:48:14;23.60;27.30
4097;DHT22;2062;50.694;7.246;2022-12-10T08:50:41;23.60;27.90
4097;DHT22;2062;50.694;7.246;2022-12-10T08:53:07;23.60;27.40
4097;DHT22;2062;50.694;7.246;2022-12-10T08:55:38;23.60;27.30
4097;DHT22;2062;50.694;7.246;2022-12-10T08:58:07;23.60;27.40
4097;DHT22;2062;50.694;7.246;2022-12-10T09:00:36;23.60;27.40
4097;DHT22;2062;50.694;7.246;2022-12-10T09:03:03;23.60;27.40
4097;DHT22;2062;50.694;7.246;2022-12-10T09:05:30;23.60;27.30
4097;DHT22;2062;50.694;7.246;2022-12-10T09:07:57;23.60;27.30
4097;DHT22;2062;50.694;7.246;2022-12-10T09:10:24;23.60;27.30
4097;DHT22;2062;50.694;7.246;2022-12-10T09:12:51;23.60;27.20
4097;DHT22;2062;50.694;7.246;2022-12-10T09:15:20;23.60;27.30
4097;DHT22;2062;50.694;7.246;2022-12-10T09:17:46;23.60;27.40
4097;DHT22;2062;50.694;7.246;2022-12-10T09:20:14;23.60;26.60
4097;DHT22;2062;50.694;7.246;2022-12-10T09:22:41;23.60;26.70
4097;DHT22;2062;50.694;7.246;2022-12-10T09:25:08;23.60;26.70
4097;DHT22;2062;50.694;7.246;2022-12-10T09:27:36;23.60;26.80
4097;DHT22;2062;50.694;7.246;2022-12-10T09:30:04;23.60;26.80
4097;DHT22;2062;50.694;7.246;2022-12-10T09:32:33;23.50;26.90
4097;DHT22;2062;50.694;7.246;2022-12-10T09:35:00;23.60;27.10
4097;DHT22;2062;50.694;7.246;2022-12-10T09:37:26;23.50;27.10
4097;DHT22;2062;50.694;7.246;2022-12-10T09:39:53;23.60;27.20
4097;DHT22;2062;50.694;7.246;2022-12-10T09:42:29;23.60;27.20
4097;DHT22;2062;50.694;7.246;2022-12-10T09:45:02;23.60;27.30
4097;DHT22;2062;50.694;7.246;2022-12-10T09:47:39;23.60;27.30
4097;DHT22;2062;50.694;7.246;2022-12-10T09:50:14;23.60;27.40
4097;DHT22;2062;50.694;7.246;2022-12-10T09:52:45;23.50;27.40
4097;DHT22;2062;50.694;7.246;2022-12-10T09:55:15;23.60;27.40
4097;DHT22;2062;50.694;7.246;2022-12-10T09:57:45;23.60;27.50
4097;DHT22;2062;50.694;7.246;2022-12-10T10:00:22;23.60;27.40
4097;DHT22;2062;50.694;7.246;2022-12-10T10:02:51;23.60;27.40
4097;DHT22;2062;50.694;7.246;2022-12-10T10:05:24;23.60;27.40
4097;DHT22;2062;50.694;7.246;2022-12-10T10:07:53;23.60;27.30
4097;DHT22;2062;50.694;7.246;2022-12-10T10:10:26;23.60;27.10
4097;DHT22;2062;50.694;7.246;2022-12-10T10:12:57;23.60;25.50
4097;DHT22;2062;50.694;7.246;2022-12-10T10:15:30;23.50;26.00
4097;DHT22;2062;50.694;7.246;2022-12-10T10:18:02;23.50;26.10
4097;DHT22;2062;50.694;7.246;2022-12-10T10:20:30;23.50;26.20
4097;DHT22;2062;50.694;7.246;2022-12-10T10:22:57;23.50;26.30
4097;DHT22;2062;50.694;7.246;2022-12-10T10:25:25;23.50;26.30
4097;DHT22;2062;50.694;7.246;2022-12-10T10:27:53;23.50;26.30
4097;DHT22;2062;50.694;7.246;2022-12-10T10:30:22;23.50;26.40
4097;DHT22;2062;50.694;7.246;2022-12-10T10:32:51;23.50;26.40
4097;DHT22;2062;50.694;7.246;2022-12-10T10:35:26;23.50;26.50
4097;DHT22;2062;50.694;7.246;2022-12-10T10:37:59;23.50;26.50
4097;DHT22;2062;50.694;7.246;2022-12-10T10:40:29;23.50;26.50
4097;DHT22;2062;50.694;7.246;2022-12-10T10:42:58;23.50;26.60
4097;DHT22;2062;50.694;7.246;2022-12-10T10:45:34;23.50;26.70
4097;DHT22;2062;50.694;7.246;2022-12-10T10:48:07;23.50;26.70
4097;DHT22;2062;50.694;7.246;2022-12-10T10:50:40;23.50;26.70
4097;DHT22;2062;50.694;7.246;2022-12-10T10:53:35;23.50;26.80
4097;DHT22;2062;50.694;7.246;2022-12-10T10:56:09;23.50;26.80
4097;DHT22;2062;50.694;7.246;2022-12-10T10:58:47;23.50;26.90
4097;DHT22;2062;50.694;7.246;2022-12-10T11:01:16;23.50;26.90
4097;DHT22;2062;50.694;7.246;2022-12-10T11:03:47;23.50;27.00
4097;DHT22;2062;50.694;7.246;2022-12-10T11:06:16;23.50;27.00
4097;DHT22;2062;50.694;7.246;2022-12-10T11:08:45;23.50;27.00
4097;DHT22;2062;50.694;7.246;2022-12-10T11:11:20;23.50;27.00
4097;DHT22;2062;50.694;7.246;2022-12-10T11:13:48;23.50;27.00
4097;DHT22;2062;50.694;7.246;2022-12-10T11:16:19;23.50;27.10
4097;DHT22;2062;50.694;7.246;2022-12-10T11:18:55;23.50;27.10
4097;DHT22;2062;50.694;7.246;2022-12-10T11:21:24;23.50;27.10
4097;DHT22;2062;50.694;7.246;2022-12-10T11:23:53;23.50;27.80
4097;DHT22;2062;50.694;7.246;2022-12-10T11:26:32;23.50;27.10
4097;DHT22;2062;50.694;7.246;2022-12-10T11:29:16;23.50;27.10
4097;DHT22;2062;50.694;7.246;2022-12-10T11:31:54;23.60;27.10
4097;DHT22;2062;50.694;7.246;2022-12-10T11:34:33;23.50;27.10
4097;DHT22;2062;50.694;7.246;2022-12-10T11:37:08;23.50;27.10
4097;DHT22;2062;50.694;7.246;2022-12-10T11:39:54;23.50;27.10
4097;DHT22;2062;50.694;7.246;2022-12-10T11:42:27;23.50;27.20
4097;DHT22;2062;50.694;7.246;2022-12-10T11:45:02;23.50;27.10
4097;DHT22;2062;50.694;7.246;2022-12-10T11:47:40;23.50;27.10
4097;DHT22;2062;50.694;7.246;2022-12-10T11:50:18;23.50;27.20
4097;DHT22;2062;50.694;7.246;2022-12-10T11:53:02;23.50;27.20
4097;DHT22;2062;50.694;7.246;2022-12-10T11:55:38;23.50;27.20
4097;DHT22;2062;50.694;7.246;2022-12-10T11:58:31;23.50;27.20
4097;DHT22;2062;50.694;7.246;2022-12-10T12:01:04;23.50;27.30
4097;DHT22;2062;50.694;7.246;2022-12-10T12:03:51;23.50;27.30
4097;DHT22;2062;50.694;7.246;2022-12-10T12:06:30;23.50;27.30
4097;DHT22;2062;50.694;7.246;2022-12-10T12:09:05;23.50;27.50
4097;DHT22;2062;50.694;7.246;2022-12-10T12:11:47;23.50;27.50
4097;DHT22;2062;50.694;7.246;2022-12-10T12:14:20;23.50;27.50
4097;DHT22;2062;50.694;7.246;2022-12-10T12:16:54;23.50;27.50
4097;DHT22;2062;50.694;7.246;2022-12-10T12:19:31;23.50;27.50
4097;DHT22;2062;50.694;7.246;2022-12-10T12:22:02;23.50;27.40
4097;DHT22;2062;50.694;7.246;2022-12-10T12:24:35;23.50;27.40
4097;DHT22;2062;50.694;7.246;2022-12-10T12:27:09;23.50;27.50
4097;DHT22;2062;50.694;7.246;2022-12-10T12:29:41;23.60;27.50
4097;DHT22;2062;50.694;7.246;2022-12-10T12:32:17;23.60;27.40
4097;DHT22;2062;50.694;7.246;2022-12-10T12:34:49;23.60;27.40
4097;DHT22;2062;50.694;7.246;2022-12-10T12:37:22;23.50;27.40
4097;DHT22;2062;50.694;7.246;2022-12-10T12:39:57;23.60;27.40
4097;DHT22;2062;50.694;7.246;2022-12-10T12:42:31;23.60;27.40
4097;DHT22;2062;50.694;7.246;2022-12-10T12:45:03;23.60;27.40
4097;DHT22;2062;50.694;7.246;2022-12-10T12:47:39;23.60;27.40
4097;DHT22;2062;50.694;7.246;2022-12-10T12:50:22;23.50;27.40
4097;DHT22;2062;50.694;7.246;2022-12-10T12:52:53;23.60;27.30
4097;DHT22;2062;50.694;7.246;2022-12-10T12:55:27;23.50;27.30
4097;DHT22;2062;50.694;7.246;2022-12-10T12:58:10;23.60;27.30
4097;DHT22;2062;50.694;7.246;2022-12-10T13:00:42;23.60;27.20
4097;DHT22;2062;50.694;7.246;2022-12-10T13:03:32;23.60;27.90
4097;DHT22;2062;50.694;7.246;2022-12-10T13:06:21;23.60;27.20
4097;DHT22;2062;50.694;7.246;2022-12-10T13:08:52;23.50;27.20
4097;DHT22;2062;50.694;7.246;2022-12-10T13:11:30;23.60;27.20
4097;DHT22;2062;50.694;7.246;2022-12-10T13:14:28;23.50;27.10
4097;DHT22;2062;50.694;7.246;2022-12-10T13:17:02;23.50;27.10
4097;DHT22;2062;50.694;7.246;2022-12-10T13:19:33;23.50;27.10
4097;DHT22;2062;50.694;7.246;2022-12-10T13:22:04;23.50;27.10
4097;DHT22;2062;50.694;7.246;2022-12-10T13:25:09;23.50;27.10
4097;DHT22;2062;50.694;7.246;2022-12-10T13:27:39;23.50;27.00
4097;DHT22;2062;50.694;7.246;2022-12-10T13:30:26;23.50;27.10
4097;DHT22;2062;50.694;7.246;2022-12-10T13:33:12;23.50;27.00
4097;DHT22;2062;50.694;7.246;2022-12-10T13:35:59;23.50;27.00
4097;DHT22;2062;50.694;7.246;2022-12-10T13:38:27;23.50;27.00
4097;DHT22;2062;50.694;7.246;2022-12-10T13:41:00;23.50;27.00
4097;DHT22;2062;50.694;7.246;2022-12-10T13:43:54;23.50;27.00
4097;DHT22;2062;50.694;7.246;2022-12-10T13:46:57;23.50;27.00
4097;DHT22;2062;50.694;7.246;2022-12-10T13:49:25;23.50;27.00
4097;DHT22;2062;50.694;7.246;2022-12-10T13:51:58;23.50;27.00
4097;DHT22;2062;50.694;7.246;2022-12-10T13:55:08;23.50;27.00
4097;DHT22;2062;50.694;7.246;2022-12-10T13:57:56;23.50;27.00
4097;DHT22;2062;50.694;7.246;2022-12-10T14:00:34;23.50;27.00
4097;DHT22;2062;50.694;7.246;2022-12-10T14:03:42;23.50;27.00
4097;DHT22;2062;50.694;7.246;2022-12-10T14:06:16;23.50;26.90
4097;DHT22;2062;50.694;7.246;2022-12-10T14:08:54;23.50;27.00
4097;DHT22;2062;50.694;7.246;2022-12-10T14:11:25;23.50;26.90
4097;DHT22;2062;50.694;7.246;2022-12-10T14:13:57;23.50;26.90
4097;DHT22;2062;50.694;7.246;2022-12-10T14:16:28;23.50;26.90
4097;DHT22;2062;50.694;7.246;2022-12-10T14:18:58;23.50;26.90
4097;DHT22;2062;50.694;7.246;2022-12-10T14:21:26;23.50;26.90
4097;DHT22;2062;50.694;7.246;2022-12-10T14:23:53;23.50;26.90
4097;DHT22;2062;50.694;7.246;2022-12-10T14:26:26;23.50;26.90
4097;DHT22;2062;50.694;7.246;2022-12-10T14:28:56;23.50;26.90
4097;DHT22;2062;50.694;7.246;2022-12-10T14:31:28;23.50;26.90
4097;DHT22;2062;50.694;7.246;2022-12-10T14:34:00;23.50;26.90
4097;DHT22;2062;50.694;7.246;2022-12-10T14:36:29;23.50;26.90
4097;DHT22;2062;50.694;7.246;2022-12-10T14:38:57;23.50;26.90
4097;DHT22;2062;50.694;7.246;2022-12-10T14:41:24;23.50;26.90
4097;DHT22;2062;50.694;7.246;2022-12-10T14:43:53;23.50;26.90
4097;DHT22;2062;50.694;7.246;2022-12-10T14:46:23;23.50;26.90
4097;DHT22;2062;50.694;7.246;2022-12-10T14:48:53;23.50;26.80
4097;DHT22;2062;50.694;7.246;2022-12-10T14:51:22;23.50;26.80
4097;DHT22;2062;50.694;7.246;2022-12-10T14:53:50;23.50;26.90
4097;DHT22;2062;50.694;7.246;2022-12-10T14:56:22;23.50;26.90
4097;DHT22;2062;50.694;7.246;2022-12-10T14:58:52;23.50;26.80
4097;DHT22;2062;50.694;7.246;2022-12-10T15:01:27;23.50;26.80
4097;DHT22;2062;50.694;7.246;2022-12-10T15:03:58;23.40;26.80
4097;DHT22;2062;50.694;7.246;2022-12-10T15:06:26;23.50;26.90
4097;DHT22;2062;50.694;7.246;2022-12-10T15:08:55;23.50;26.90
4097;DHT22;2062;50.694;7.246;2022-12-10T15:11:24;23.50;26.90
4097;DHT22;2062;50.694;7.246;2022-12-10T15:13:54;23.40;26.80
4097;DHT22;2062;50.694;7.246;2022-12-10T15:16:29;23.40;26.80
4097;DHT22;2062;50.694;7.246;2022-12-10T15:19:09;23.40;26.80
4097;DHT22;2062;50.694;7.246;2022-12-10T15:21:42;23.40;26.70
4097;DHT22;2062;50.694;7.246;2022-12-10T15:24:14;23.40;26.70
4097;DHT22;2062;50.694;7.246;2022-12-10T15:26:44;23.40;26.70
4097;DHT22;2062;50.694;7.246;2022-12-10T15:29:29;23.40;26.70
4097;DHT22;2062;50.694;7.246;2022-12-10T15:31:59;23.40;26.70
4097;DHT22;2062;50.694;7.246;2022-12-10T15:34:28;23.40;26.80
4097;DHT22;2062;50.694;7.246;2022-12-10T15:37:00;23.40;26.80
4097;DHT22;2062;50.694;7.246;2022-12-10T15:39:29;23.40;26.80
4097;DHT22;2062;50.694;7.246;2022-12-10T15:41:58;23.40;26.80
4097;DHT22;2062;50.694;7.246;2022-12-10T15:44:30;23.40;26.80
4097;DHT22;2062;50.694;7.246;2022-12-10T15:47:00;23.40;26.70
4097;DHT22;2062;50.694;7.246;2022-12-10T15:49:29;23.40;26.80
4097;DHT22;2062;50.694;7.246;2022-12-10T15:51:57;23.40;26.80
4097;DHT22;2062;50.694;7.246;2022-12-10T15:54:28;23.40;26.80
4097;DHT22;2062;50.694;7.246;2022-12-10T15:56:56;23.50;26.90
4097;DHT22;2062;50.694;7.246;2022-12-10T15:59:24;23.40;26.80
4097;DHT22;2062;50.694;7.246;2022-12-10T16:01:50;23.40;26.80
4097;DHT22;2062;50.694;7.246;2022-12-10T16:04:17;23.40;27.40
4097;DHT22;2062;50.694;7.246;2022-12-10T16:06:45;23.40;26.70
4097;DHT22;2062;50.694;7.246;2022-12-10T16:09:12;23.40;26.80
4097;DHT22;2062;50.694;7.246;2022-12-10T16:11:39;23.40;26.70
4097;DHT22;2062;50.694;7.246;2022-12-10T16:14:08;23.40;26.70
4097;DHT22;2062;50.694;7.246;2022-12-10T16:16:36;23.50;26.70
4097;DHT22;2062;50.694;7.246;2022-12-10T16:19:09;23.40;26.60
4097;DHT22;2062;50.694;7.246;2022-12-10T16:21:37;23.40;26.60
4097;DHT22;2062;50.694;7.246;2022-12-10T16:24:05;23.40;26.60
4097;DHT22;2062;50.694;7.246;2022-12-10T16:26:32;23.40;26.60